sensor_id;sensor_type;location;lat;lon;timestamp;P1;durP1;ratioP1;P2;durP2;ratioP2
5674;SDS011;2860;54.284;10.158;2023-02-26T00:01:32;1.35;;;1.17;;
5674;SDS011;2860;54.284;10.158;2023-02-26T00:03:59;5.95;;;1.35;;
5674;SDS011;2860;54.284;10.158;2023-02-26T00:06:26;1.30;;;0.98;;
5674;SDS011;2860;54.284;10.158;2023-02-26T00:08:53;3.28;;;1.27;;
5674;SDS011;2860;54.284;10.158;2023-02-26T00:11:18;1.75;;;1.13;;
5674;SDS011;2860;54.284;10.158;2023-02-26T00:13:44;2.83;;;1.40;;
5674;SDS011;2860;54.284;10.158;2023-02-26T00:18:54;1.45;;;0.95;;
5674;SDS011;2860;54.284;10.158;2023-02-26T00:21:21;0.98;;;0.90;;
5674;SDS011;2860;54.284;10.158;2023-02-26T00:23:48;1.65;;;1.55;;
5674;SDS011;2860;54.284;10.158;2023-02-26T00:26:14;4.47;;;1.42;;
5674;SDS011;2860;54.284;10.158;2023-02-26T00:28:39;1.70;;;1.60;;
5674;SDS011;2860;54.284;10.158;2023-02-26T00:31:05;6.55;;;1.70;;
5674;SDS011;2860;54.284;10.158;2023-02-26T00:33:31;1.33;;;1.33;;
5674;SDS011;2860;54.284;10.158;2023-02-26T00:36:02;1.50;;;1.05;;
5674;SDS011;2860;54.284;10.158;2023-02-26T00:38:39;1.10;;;1.10;;
5674;SDS011;2860;54.284;10.158;2023-02-26T00:41:08;1.30;;;1.20;;
5674;SDS011;2860;54.284;10.158;2023-02-26T00:43:34;2.33;;;1.30;;
5674;SDS011;2860;54.284;10.158;2023-02-26T00:46:02;4.03;;;1.45;;
5674;SDS011;2860;54.284;10.158;2023-02-26T00:51:30;1.75;;;1.23;;
5674;SDS011;2860;54.284;10.158;2023-02-26T00:54:12;3.05;;;1.40;;
5674;SDS011;2860;54.284;10.158;2023-02-26T00:56:45;2.05;;;0.95;;
5674;SDS011;2860;54.284;10.158;2023-02-26T00:59:11;1.20;;;1.20;;
5674;SDS011;2860;54.284;10.158;2023-02-26T01:01:37;1.48;;;0.95;;
5674;SDS011;2860;54.284;10.158;2023-02-26T01:04:03;3.70;;;1.70;;
5674;SDS011;2860;54.284;10.158;2023-02-26T01:06:30;1.60;;;1.50;;
5674;SDS011;2860;54.284;10.158;2023-02-26T01:09:01;1.80;;;1.30;;
5674;SDS011;2860;54.284;10.158;2023-02-26T01:11:33;2.65;;;1.13;;
5674;SDS011;2860;54.284;10.158;2023-02-26T01:13:59;3.28;;;2.20;;
5674;SDS011;2860;54.284;10.158;2023-02-26T01:16:26;1.50;;;1.33;;
5674;SDS011;2860;54.284;10.158;2023-02-26T01:18:58;3.40;;;1.52;;
5674;SDS011;2860;54.284;10.158;2023-02-26T01:21:33;6.63;;;1.35;;
5674;SDS011;2860;54.284;10.158;2023-02-26T01:24:03;1.55;;;1.17;;
5674;SDS011;2860;54.284;10.158;2023-02-26T01:26:30;1.65;;;1.48;;
5674;SDS011;2860;54.284;10.158;2023-02-26T01:28:56;3.20;;;1.73;;
5674;SDS011;2860;54.284;10.158;2023-02-26T01:33:48;2.03;;;1.23;;
5674;SDS011;2860;54.284;10.158;2023-02-26T01:36:20;0.88;;;0.88;;
5674;SDS011;2860;54.284;10.158;2023-02-26T01:41:45;1.38;;;1.27;;
5674;SDS011;2860;54.284;10.158;2023-02-26T01:49:24;1.10;;;1.10;;
5674;SDS011;2860;54.284;10.158;2023-02-26T01:51:54;0.85;;;0.85;;
5674;SDS011;2860;54.284;10.158;2023-02-26T01:54:39;4.60;;;1.23;;
5674;SDS011;2860;54.284;10.158;2023-02-26T01:57:09;1.30;;;1.20;;
5674;SDS011;2860;54.284;10.158;2023-02-26T01:59:37;2.50;;;1.23;;
5674;SDS011;2860;54.284;10.158;2023-02-26T02:02:08;7.43;;;1.35;;
5674;SDS011;2860;54.284;10.158;2023-02-26T02:04:35;2.70;;;1.20;;
5674;SDS011;2860;54.284;10.158;2023-02-26T02:07:03;1.10;;;1.10;;
5674;SDS011;2860;54.284;10.158;2023-02-26T02:09:29;1.33;;;1.33;;
5674;SDS011;2860;54.284;10.158;2023-02-26T02:12:06;1.65;;;1.20;;
5674;SDS011;2860;54.284;10.158;2023-02-26T02:14:55;1.15;;;1.15;;
5674;SDS011;2860;54.284;10.158;2023-02-26T02:17:49;4.22;;;1.10;;
5674;SDS011;2860;54.284;10.158;2023-02-26T02:22:52;2.10;;;1.27;;
5674;SDS011;2860;54.284;10.158;2023-02-26T02:33:33;1.88;;;1.05;;
5674;SDS011;2860;54.284;10.158;2023-02-26T02:36:19;1.27;;;1.25;;
5674;SDS011;2860;54.284;10.158;2023-02-26T02:39:02;1.75;;;0.95;;
5674;SDS011;2860;54.284;10.158;2023-02-26T02:41:34;2.42;;;1.17;;
5674;SDS011;2860;54.284;10.158;2023-02-26T02:44:07;4.53;;;1.40;;
5674;SDS011;2860;54.284;10.158;2023-02-26T02:46:37;1.65;;;1.60;;
5674;SDS011;2860;54.284;10.158;2023-02-26T02:49:15;2.10;;;1.13;;
5674;SDS011;2860;54.284;10.158;2023-02-26T02:52:02;1.08;;;1.08;;
5674;SDS011;2860;54.284;10.158;2023-02-26T02:54:57;3.40;;;1.33;;
5674;SDS011;2860;54.284;10.158;2023-02-26T02:57:25;1.50;;;0.90;;
5674;SDS011;2860;54.284;10.158;2023-02-26T03:00:00;0.85;;;0.82;;
5674;SDS011;2860;54.284;10.158;2023-02-26T03:02:48;1.05;;;0.70;;
5674;SDS011;2860;54.284;10.158;2023-02-26T03:05:20;1.30;;;1.30;;
5674;SDS011;2860;54.284;10.158;2023-02-26T03:07:50;1.45;;;1.30;;
5674;SDS011;2860;54.284;10.158;2023-02-26T03:10:20;1.63;;;1.63;;
5674;SDS011;2860;54.284;10.158;2023-02-26T03:12:46;1.23;;;1.23;;
5674;SDS011;2860;54.284;10.158;2023-02-26T03:15:12;0.75;;;0.75;;
5674;SDS011;2860;54.284;10.158;2023-02-26T03:17:42;1.05;;;1.05;;
5674;SDS011;2860;54.284;10.158;2023-02-26T03:20:25;2.15;;;0.98;;
5674;SDS011;2860;54.284;10.158;2023-02-26T03:31:04;2.25;;;1.63;;
5674;SDS011;2860;54.284;10.158;2023-02-26T03:36:19;1.38;;;1.38;;
5674;SDS011;2860;54.284;10.158;2023-02-26T03:38:54;1.08;;;1.08;;
5674;SDS011;2860;54.284;10.158;2023-02-26T03:41:36;2.47;;;1.20;;
5674;SDS011;2860;54.284;10.158;2023-02-26T03:44:14;1.42;;;1.10;;
5674;SDS011;2860;54.284;10.158;2023-02-26T03:46:45;2.65;;;1.55;;
5674;SDS011;2860;54.284;10.158;2023-02-26T03:49:17;4.57;;;1.08;;
5674;SDS011;2860;54.284;10.158;2023-02-26T03:51:54;0.90;;;0.90;;
5674;SDS011;2860;54.284;10.158;2023-02-26T03:54:25;3.65;;;1.60;;
5674;SDS011;2860;54.284;10.158;2023-02-26T03:56:54;1.00;;;1.00;;
5674;SDS011;2860;54.284;10.158;2023-02-26T03:59:20;1.08;;;1.08;;
5674;SDS011;2860;54.284;10.158;2023-02-26T04:01:59;1.10;;;1.08;;
5674;SDS011;2860;54.284;10.158;2023-02-26T04:04:41;0.90;;;0.90;;
5674;SDS011;2860;54.284;10.158;2023-02-26T04:07:14;1.10;;;0.90;;
5674;SDS011;2860;54.284;10.158;2023-02-26T04:09:42;2.55;;;1.35;;
5674;SDS011;2860;54.284;10.158;2023-02-26T04:12:10;2.67;;;1.40;;
5674;SDS011;2860;54.284;10.158;2023-02-26T04:14:36;1.55;;;1.15;;
5674;SDS011;2860;54.284;10.158;2023-02-26T04:17:01;2.35;;;1.23;;
5674;SDS011;2860;54.284;10.158;2023-02-26T04:19:27;3.83;;;0.90;;
5674;SDS011;2860;54.284;10.158;2023-02-26T04:21:53;3.00;;;1.42;;
5674;SDS011;2860;54.284;10.158;2023-02-26T04:24:18;1.45;;;1.13;;
5674;SDS011;2860;54.284;10.158;2023-02-26T04:26:44;1.10;;;1.10;;
5674;SDS011;2860;54.284;10.158;2023-02-26T04:29:10;2.92;;;1.10;;
5674;SDS011;2860;54.284;10.158;2023-02-26T04:31:35;2.97;;;1.10;;
5674;SDS011;2860;54.284;10.158;2023-02-26T04:34:01;1.42;;;1.33;;
5674;SDS011;2860;54.284;10.158;2023-02-26T04:36:27;2.05;;;1.25;;
5674;SDS011;2860;54.284;10.158;2023-02-26T04:38:53;2.38;;;1.20;;
5674;SDS011;2860;54.284;10.158;2023-02-26T04:41:18;1.58;;;0.90;;
5674;SDS011;2860;54.284;10.158;2023-02-26T04:43:44;2.55;;;1.15;;
5674;SDS011;2860;54.284;10.158;2023-02-26T04:46:09;1.60;;;0.90;;
5674;SDS011;2860;54.284;10.158;2023-02-26T04:48:35;2.33;;;1.10;;
5674;SDS011;2860;54.284;10.158;2023-02-26T04:51:00;1.10;;;1.10;;
5674;SDS011;2860;54.284;10.158;2023-02-26T04:53:26;3.03;;;1.20;;
5674;SDS011;2860;54.284;10.158;2023-02-26T04:55:51;1.95;;;1.70;;
5674;SDS011;2860;54.284;10.158;2023-02-26T04:58:17;1.67;;;1.08;;
5674;SDS011;2860;54.284;10.158;2023-02-26T05:00:46;1.23;;;1.17;;
5674;SDS011;2860;54.284;10.158;2023-02-26T05:03:13;1.17;;;1.13;;
5674;SDS011;2860;54.284;10.158;2023-02-26T05:05:39;1.25;;;1.25;;
5674;SDS011;2860;54.284;10.158;2023-02-26T05:08:04;1.30;;;1.30;;
5674;SDS011;2860;54.284;10.158;2023-02-26T05:10:30;2.05;;;1.00;;
5674;SDS011;2860;54.284;10.158;2023-02-26T05:12:56;1.27;;;1.27;;
5674;SDS011;2860;54.284;10.158;2023-02-26T05:15:21;2.42;;;1.40;;
5674;SDS011;2860;54.284;10.158;2023-02-26T05:17:47;1.25;;;1.25;;
5674;SDS011;2860;54.284;10.158;2023-02-26T05:20:12;1.30;;;1.30;;
5674;SDS011;2860;54.284;10.158;2023-02-26T05:22:39;1.27;;;1.17;;
5674;SDS011;2860;54.284;10.158;2023-02-26T05:25:05;3.55;;;1.10;;
5674;SDS011;2860;54.284;10.158;2023-02-26T05:27:31;8.07;;;1.48;;
5674;SDS011;2860;54.284;10.158;2023-02-26T05:29:57;1.77;;;1.10;;
5674;SDS011;2860;54.284;10.158;2023-02-26T05:32:22;2.85;;;1.05;;
5674;SDS011;2860;54.284;10.158;2023-02-26T05:34:48;4.38;;;1.70;;
5674;SDS011;2860;54.284;10.158;2023-02-26T05:37:13;1.27;;;1.27;;
5674;SDS011;2860;54.284;10.158;2023-02-26T05:39:39;6.65;;;1.52;;
5674;SDS011;2860;54.284;10.158;2023-02-26T05:42:05;5.05;;;1.25;;
5674;SDS011;2860;54.284;10.158;2023-02-26T05:44:31;5.32;;;1.63;;
5674;SDS011;2860;54.284;10.158;2023-02-26T05:46:56;0.90;;;0.90;;
5674;SDS011;2860;54.284;10.158;2023-02-26T05:49:22;1.90;;;1.08;;
5674;SDS011;2860;54.284;10.158;2023-02-26T05:51:47;1.33;;;1.23;;
5674;SDS011;2860;54.284;10.158;2023-02-26T05:54:13;3.00;;;1.40;;
5674;SDS011;2860;54.284;10.158;2023-02-26T05:56:39;1.85;;;1.33;;
5674;SDS011;2860;54.284;10.158;2023-02-26T05:59:04;3.15;;;2.50;;
5674;SDS011;2860;54.284;10.158;2023-02-26T06:01:30;1.35;;;1.27;;
5674;SDS011;2860;54.284;10.158;2023-02-26T06:03:55;1.10;;;1.10;;
5674;SDS011;2860;54.284;10.158;2023-02-26T06:06:20;1.10;;;1.10;;
5674;SDS011;2860;54.284;10.158;2023-02-26T06:08:46;1.58;;;1.00;;
5674;SDS011;2860;54.284;10.158;2023-02-26T06:11:12;1.92;;;1.10;;
5674;SDS011;2860;54.284;10.158;2023-02-26T06:13:37;3.55;;;1.55;;
5674;SDS011;2860;54.284;10.158;2023-02-26T06:16:04;1.92;;;1.08;;
5674;SDS011;2860;54.284;10.158;2023-02-26T06:18:30;0.70;;;0.70;;
5674;SDS011;2860;54.284;10.158;2023-02-26T06:20:57;1.08;;;1.00;;
5674;SDS011;2860;54.284;10.158;2023-02-26T06:23:23;1.77;;;1.35;;
5674;SDS011;2860;54.284;10.158;2023-02-26T06:25:49;3.40;;;1.20;;
5674;SDS011;2860;54.284;10.158;2023-02-26T06:28:16;1.10;;;1.10;;
5674;SDS011;2860;54.284;10.158;2023-02-26T06:30:42;0.93;;;0.93;;
5674;SDS011;2860;54.284;10.158;2023-02-26T06:33:07;0.93;;;0.90;;
5674;SDS011;2860;54.284;10.158;2023-02-26T06:35:32;2.40;;;1.15;;
5674;SDS011;2860;54.284;10.158;2023-02-26T06:37:58;0.73;;;0.70;;
5674;SDS011;2860;54.284;10.158;2023-02-26T06:40:23;1.85;;;0.85;;
5674;SDS011;2860;54.284;10.158;2023-02-26T06:42:49;1.00;;;1.00;;
5674;SDS011;2860;54.284;10.158;2023-02-26T06:45:14;0.90;;;0.90;;
5674;SDS011;2860;54.284;10.158;2023-02-26T06:47:40;1.63;;;1.10;;
5674;SDS011;2860;54.284;10.158;2023-02-26T06:50:06;1.13;;;1.08;;
5674;SDS011;2860;54.284;10.158;2023-02-26T06:52:32;2.35;;;0.80;;
5674;SDS011;2860;54.284;10.158;2023-02-26T06:54:58;2.30;;;1.33;;
5674;SDS011;2860;54.284;10.158;2023-02-26T06:57:23;1.42;;;1.33;;
5674;SDS011;2860;54.284;10.158;2023-02-26T06:59:49;4.65;;;1.20;;
5674;SDS011;2860;54.284;10.158;2023-02-26T07:02:16;2.60;;;1.50;;
5674;SDS011;2860;54.284;10.158;2023-02-26T07:04:43;2.72;;;1.65;;
5674;SDS011;2860;54.284;10.158;2023-02-26T07:07:09;5.10;;;1.27;;
5674;SDS011;2860;54.284;10.158;2023-02-26T07:09:35;2.72;;;1.02;;
5674;SDS011;2860;54.284;10.158;2023-02-26T07:12:01;3.85;;;1.20;;
5674;SDS011;2860;54.284;10.158;2023-02-26T07:14:26;1.77;;;1.55;;
5674;SDS011;2860;54.284;10.158;2023-02-26T07:16:52;1.02;;;1.02;;
5674;SDS011;2860;54.284;10.158;2023-02-26T07:19:17;1.30;;;1.20;;
5674;SDS011;2860;54.284;10.158;2023-02-26T07:21:43;2.70;;;1.10;;
5674;SDS011;2860;54.284;10.158;2023-02-26T07:24:08;0.95;;;0.95;;
5674;SDS011;2860;54.284;10.158;2023-02-26T07:26:34;1.48;;;1.08;;
5674;SDS011;2860;54.284;10.158;2023-02-26T07:28:59;1.30;;;1.20;;
5674;SDS011;2860;54.284;10.158;2023-02-26T07:31:25;0.95;;;0.95;;
5674;SDS011;2860;54.284;10.158;2023-02-26T07:33:50;8.20;;;3.65;;
5674;SDS011;2860;54.284;10.158;2023-02-26T07:36:16;1.38;;;1.10;;
5674;SDS011;2860;54.284;10.158;2023-02-26T07:38:41;1.30;;;1.20;;
5674;SDS011;2860;54.284;10.158;2023-02-26T07:41:07;1.75;;;1.17;;
5674;SDS011;2860;54.284;10.158;2023-02-26T07:43:33;2.35;;;0.98;;
5674;SDS011;2860;54.284;10.158;2023-02-26T07:45:58;1.00;;;1.00;;
5674;SDS011;2860;54.284;10.158;2023-02-26T07:48:24;0.90;;;0.90;;
5674;SDS011;2860;54.284;10.158;2023-02-26T07:50:52;1.40;;;1.20;;
5674;SDS011;2860;54.284;10.158;2023-02-26T07:53:18;1.83;;;1.15;;
5674;SDS011;2860;54.284;10.158;2023-02-26T07:55:44;1.25;;;1.25;;
5674;SDS011;2860;54.284;10.158;2023-02-26T07:58:09;0.93;;;0.93;;
5674;SDS011;2860;54.284;10.158;2023-02-26T08:00:35;1.00;;;1.00;;
5674;SDS011;2860;54.284;10.158;2023-02-26T08:03:00;3.33;;;1.02;;
5674;SDS011;2860;54.284;10.158;2023-02-26T08:05:26;1.50;;;1.50;;
5674;SDS011;2860;54.284;10.158;2023-02-26T08:07:52;2.97;;;1.52;;
5674;SDS011;2860;54.284;10.158;2023-02-26T08:10:17;1.30;;;1.10;;
5674;SDS011;2860;54.284;10.158;2023-02-26T08:12:43;2.35;;;1.20;;
5674;SDS011;2860;54.284;10.158;2023-02-26T08:15:08;2.25;;;1.20;;
5674;SDS011;2860;54.284;10.158;2023-02-26T08:17:37;1.80;;;1.38;;
5674;SDS011;2860;54.284;10.158;2023-02-26T08:20:02;1.98;;;0.98;;
5674;SDS011;2860;54.284;10.158;2023-02-26T08:22:29;2.60;;;1.23;;
5674;SDS011;2860;54.284;10.158;2023-02-26T08:24:54;1.00;;;1.00;;
5674;SDS011;2860;54.284;10.158;2023-02-26T08:27:20;3.10;;;1.08;;
5674;SDS011;2860;54.284;10.158;2023-02-26T08:29:45;2.83;;;1.10;;
5674;SDS011;2860;54.284;10.158;2023-02-26T08:32:14;4.85;;;1.45;;
5674;SDS011;2860;54.284;10.158;2023-02-26T08:34:41;1.50;;;1.30;;
5674;SDS011;2860;54.284;10.158;2023-02-26T08:37:07;1.08;;;1.00;;
5674;SDS011;2860;54.284;10.158;2023-02-26T08:39:35;3.38;;;1.40;;
5674;SDS011;2860;54.284;10.158;2023-02-26T08:42:03;3.15;;;1.02;;
5674;SDS011;2860;54.284;10.158;2023-02-26T08:44:29;1.50;;;1.40;;
5674;SDS011;2860;54.284;10.158;2023-02-26T08:46:54;3.13;;;1.00;;
5674;SDS011;2860;54.284;10.158;2023-02-26T08:49:20;1.23;;;1.13;;
5674;SDS011;2860;54.284;10.158;2023-02-26T08:51:46;1.23;;;1.23;;
5674;SDS011;2860;54.284;10.158;2023-02-26T08:54:11;1.20;;;1.20;;
5674;SDS011;2860;54.284;10.158;2023-02-26T08:56:37;1.83;;;1.42;;
5674;SDS011;2860;54.284;10.158;2023-02-26T08:59:02;4.10;;;1.23;;
5674;SDS011;2860;54.284;10.158;2023-02-26T09:01:29;2.50;;;1.00;;
5674;SDS011;2860;54.284;10.158;2023-02-26T09:03:55;1.27;;;1.15;;
5674;SDS011;2860;54.284;10.158;2023-02-26T09:06:20;0.75;;;0.75;;
5674;SDS011;2860;54.284;10.158;2023-02-26T09:08:46;1.42;;;1.02;;
5674;SDS011;2860;54.284;10.158;2023-02-26T09:11:11;2.05;;;1.10;;
5674;SDS011;2860;54.284;10.158;2023-02-26T09:13:37;3.03;;;0.80;;
5674;SDS011;2860;54.284;10.158;2023-02-26T09:16:03;0.70;;;0.70;;
5674;SDS011;2860;54.284;10.158;2023-02-26T09:18:28;4.03;;;1.10;;
5674;SDS011;2860;54.284;10.158;2023-02-26T09:20:54;1.20;;;1.10;;
5674;SDS011;2860;54.284;10.158;2023-02-26T09:23:20;2.65;;;1.00;;
5674;SDS011;2860;54.284;10.158;2023-02-26T09:25:45;1.48;;;1.02;;
5674;SDS011;2860;54.284;10.158;2023-02-26T09:28:15;1.00;;;1.00;;
5674;SDS011;2860;54.284;10.158;2023-02-26T09:30:41;4.28;;;1.08;;
5674;SDS011;2860;54.284;10.158;2023-02-26T09:33:07;2.05;;;1.27;;
5674;SDS011;2860;54.284;10.158;2023-02-26T09:35:33;1.50;;;1.25;;
5674;SDS011;2860;54.284;10.158;2023-02-26T09:37:59;5.65;;;1.48;;
5674;SDS011;2860;54.284;10.158;2023-02-26T09:40:44;2.88;;;1.52;;
5674;SDS011;2860;54.284;10.158;2023-02-26T09:43:18;3.35;;;1.85;;
5674;SDS011;2860;54.284;10.158;2023-02-26T09:45:51;4.13;;;1.48;;
5674;SDS011;2860;54.284;10.158;2023-02-26T09:48:19;7.82;;;2.08;;
5674;SDS011;2860;54.284;10.158;2023-02-26T09:50:52;6.50;;;1.60;;
5674;SDS011;2860;54.284;10.158;2023-02-26T09:55:57;2.47;;;2.13;;
5674;SDS011;2860;54.284;10.158;2023-02-26T10:01:10;3.22;;;2.00;;
5674;SDS011;2860;54.284;10.158;2023-02-26T10:06:39;12.60;;;2.38;;
5674;SDS011;2860;54.284;10.158;2023-02-26T10:12:26;1.83;;;1.60;;
5674;SDS011;2860;54.284;10.158;2023-02-26T10:17:39;2.78;;;2.58;;
5674;SDS011;2860;54.284;10.158;2023-02-26T10:20:19;4.93;;;3.95;;
5674;SDS011;2860;54.284;10.158;2023-02-26T10:22:56;9.63;;;2.58;;
5674;SDS011;2860;54.284;10.158;2023-02-26T10:25:41;3.60;;;3.05;;
5674;SDS011;2860;54.284;10.158;2023-02-26T10:30:58;3.33;;;2.45;;
5674;SDS011;2860;54.284;10.158;2023-02-26T10:36:16;1.55;;;1.55;;
5674;SDS011;2860;54.284;10.158;2023-02-26T10:39:13;3.70;;;1.40;;
5674;SDS011;2860;54.284;10.158;2023-02-26T10:41:47;4.60;;;1.38;;
5674;SDS011;2860;54.284;10.158;2023-02-26T10:50:03;11.15;;;2.38;;
5674;SDS011;2860;54.284;10.158;2023-02-26T10:52:31;3.25;;;1.40;;
5674;SDS011;2860;54.284;10.158;2023-02-26T11:00:38;1.42;;;1.17;;
5674;SDS011;2860;54.284;10.158;2023-02-26T11:03:12;2.03;;;1.38;;
5674;SDS011;2860;54.284;10.158;2023-02-26T11:05:43;1.30;;;1.30;;
5674;SDS011;2860;54.284;10.158;2023-02-26T11:11:06;6.07;;;1.40;;
5674;SDS011;2860;54.284;10.158;2023-02-26T11:13:33;3.40;;;1.10;;
5674;SDS011;2860;54.284;10.158;2023-02-26T11:16:09;1.88;;;1.00;;
5674;SDS011;2860;54.284;10.158;2023-02-26T11:18:42;2.30;;;1.00;;
5674;SDS011;2860;54.284;10.158;2023-02-26T11:21:16;1.45;;;1.35;;
5674;SDS011;2860;54.284;10.158;2023-02-26T11:23:46;2.65;;;2.13;;
5674;SDS011;2860;54.284;10.158;2023-02-26T11:26:17;3.03;;;1.13;;
5674;SDS011;2860;54.284;10.158;2023-02-26T11:28:44;2.05;;;1.48;;
5674;SDS011;2860;54.284;10.158;2023-02-26T11:31:11;3.75;;;0.95;;
5674;SDS011;2860;54.284;10.158;2023-02-26T11:33:47;3.78;;;1.60;;
5674;SDS011;2860;54.284;10.158;2023-02-26T11:36:17;4.25;;;1.40;;
5674;SDS011;2860;54.284;10.158;2023-02-26T11:38:45;2.42;;;1.30;;
5674;SDS011;2860;54.284;10.158;2023-02-26T11:41:16;5.05;;;1.23;;
5674;SDS011;2860;54.284;10.158;2023-02-26T11:43:42;1.40;;;1.30;;
5674;SDS011;2860;54.284;10.158;2023-02-26T11:46:11;3.10;;;1.67;;
5674;SDS011;2860;54.284;10.158;2023-02-26T11:48:39;1.80;;;0.77;;
5674;SDS011;2860;54.284;10.158;2023-02-26T11:51:10;1.25;;;1.20;;
5674;SDS011;2860;54.284;10.158;2023-02-26T11:56:13;1.02;;;1.02;;
5674;SDS011;2860;54.284;10.158;2023-02-26T11:58:44;2.88;;;1.50;;
5674;SDS011;2860;54.284;10.158;2023-02-26T12:01:12;4.03;;;1.13;;
5674;SDS011;2860;54.284;10.158;2023-02-26T12:03:42;2.60;;;1.63;;
5674;SDS011;2860;54.284;10.158;2023-02-26T12:06:17;2.17;;;1.15;;
5674;SDS011;2860;54.284;10.158;2023-02-26T12:08:45;3.20;;;1.40;;
5674;SDS011;2860;54.284;10.158;2023-02-26T12:19:18;1.33;;;1.23;;
5674;SDS011;2860;54.284;10.158;2023-02-26T12:39:16;3.17;;;0.98;;
5674;SDS011;2860;54.284;10.158;2023-02-26T12:42:15;2.92;;;1.17;;
5674;SDS011;2860;54.284;10.158;2023-02-26T12:44:50;3.22;;;1.33;;
5674;SDS011;2860;54.284;10.158;2023-02-26T12:47:30;3.47;;;1.42;;
5674;SDS011;2860;54.284;10.158;2023-02-26T12:55:29;1.85;;;1.00;;
5674;SDS011;2860;54.284;10.158;2023-02-26T12:58:25;5.38;;;1.30;;
5674;SDS011;2860;54.284;10.158;2023-02-26T13:09:29;1.60;;;1.50;;
5674;SDS011;2860;54.284;10.158;2023-02-26T13:14:55;4.35;;;2.10;;
5674;SDS011;2860;54.284;10.158;2023-02-26T13:17:46;3.80;;;1.58;;
5674;SDS011;2860;54.284;10.158;2023-02-26T13:20:17;1.75;;;1.65;;
5674;SDS011;2860;54.284;10.158;2023-02-26T13:22:49;1.58;;;1.48;;
5674;SDS011;2860;54.284;10.158;2023-02-26T13:28:03;1.23;;;0.82;;
5674;SDS011;2860;54.284;10.158;2023-02-26T13:30:54;1.20;;;1.10;;
5674;SDS011;2860;54.284;10.158;2023-02-26T13:33:25;2.35;;;1.30;;
5674;SDS011;2860;54.284;10.158;2023-02-26T13:35:53;4.50;;;1.25;;
5674;SDS011;2860;54.284;10.158;2023-02-26T13:38:23;1.58;;;1.48;;
5674;SDS011;2860;54.284;10.158;2023-02-26T13:51:41;2.78;;;1.40;;
5674;SDS011;2860;54.284;10.158;2023-02-26T13:56:42;1.80;;;1.45;;
5674;SDS011;2860;54.284;10.158;2023-02-26T13:59:34;6.20;;;1.48;;
5674;SDS011;2860;54.284;10.158;2023-02-26T14:02:03;1.27;;;1.10;;
5674;SDS011;2860;54.284;10.158;2023-02-26T14:05:05;4.00;;;2.28;;
5674;SDS011;2860;54.284;10.158;2023-02-26T14:07:52;1.30;;;1.20;;
5674;SDS011;2860;54.284;10.158;2023-02-26T14:10:35;2.10;;;1.20;;
5674;SDS011;2860;54.284;10.158;2023-02-26T14:13:21;1.73;;;1.63;;
5674;SDS011;2860;54.284;10.158;2023-02-26T14:15:51;1.38;;;1.00;;
5674;SDS011;2860;54.284;10.158;2023-02-26T14:18:28;1.80;;;1.23;;
5674;SDS011;2860;54.284;10.158;2023-02-26T14:24:06;4.70;;;1.50;;
5674;SDS011;2860;54.284;10.158;2023-02-26T14:26:43;2.20;;;1.00;;
5674;SDS011;2860;54.284;10.158;2023-02-26T14:29:25;2.20;;;1.13;;
5674;SDS011;2860;54.284;10.158;2023-02-26T14:32:04;2.17;;;1.40;;
5674;SDS011;2860;54.284;10.158;2023-02-26T14:34:42;1.60;;;1.02;;
5674;SDS011;2860;54.284;10.158;2023-02-26T14:37:14;1.92;;;1.42;;
5674;SDS011;2860;54.284;10.158;2023-02-26T14:39:43;1.27;;;1.27;;
5674;SDS011;2860;54.284;10.158;2023-02-26T14:44:45;2.05;;;1.33;;
5674;SDS011;2860;54.284;10.158;2023-02-26T14:47:14;1.33;;;1.33;;
5674;SDS011;2860;54.284;10.158;2023-02-26T14:49:41;3.80;;;1.55;;
5674;SDS011;2860;54.284;10.158;2023-02-26T14:55:12;1.95;;;1.38;;
5674;SDS011;2860;54.284;10.158;2023-02-26T15:00:52;2.65;;;1.38;;
5674;SDS011;2860;54.284;10.158;2023-02-26T15:03:30;3.90;;;1.23;;
5674;SDS011;2860;54.284;10.158;2023-02-26T15:25:57;6.35;;;1.83;;
5674;SDS011;2860;54.284;10.158;2023-02-26T15:28:30;2.67;;;1.30;;
5674;SDS011;2860;54.284;10.158;2023-02-26T15:31:00;3.00;;;1.48;;
5674;SDS011;2860;54.284;10.158;2023-02-26T15:33:30;5.10;;;2.30;;
5674;SDS011;2860;54.284;10.158;2023-02-26T15:35:56;3.05;;;2.13;;
5674;SDS011;2860;54.284;10.158;2023-02-26T15:38:22;1.52;;;1.52;;
5674;SDS011;2860;54.284;10.158;2023-02-26T15:40:48;3.15;;;1.63;;
5674;SDS011;2860;54.284;10.158;2023-02-26T15:43:19;5.53;;;2.42;;
5674;SDS011;2860;54.284;10.158;2023-02-26T15:45:50;2.30;;;2.20;;
5674;SDS011;2860;54.284;10.158;2023-02-26T15:50:46;2.30;;;1.67;;
5674;SDS011;2860;54.284;10.158;2023-02-26T15:53:17;2.58;;;1.60;;
5674;SDS011;2860;54.284;10.158;2023-02-26T15:55:52;3.10;;;1.30;;
5674;SDS011;2860;54.284;10.158;2023-02-26T16:01:21;3.65;;;2.15;;
5674;SDS011;2860;54.284;10.158;2023-02-26T16:03:49;2.55;;;1.70;;
5674;SDS011;2860;54.284;10.158;2023-02-26T16:06:17;3.25;;;1.17;;
5674;SDS011;2860;54.284;10.158;2023-02-26T16:08:47;6.13;;;1.75;;
5674;SDS011;2860;54.284;10.158;2023-02-26T16:11:13;4.85;;;1.83;;
5674;SDS011;2860;54.284;10.158;2023-02-26T16:13:39;3.03;;;2.10;;
5674;SDS011;2860;54.284;10.158;2023-02-26T16:16:08;1.75;;;1.65;;
5674;SDS011;2860;54.284;10.158;2023-02-26T16:18:39;6.18;;;2.00;;
5674;SDS011;2860;54.284;10.158;2023-02-26T16:21:06;2.92;;;2.53;;
5674;SDS011;2860;54.284;10.158;2023-02-26T16:23:44;2.60;;;2.53;;
5674;SDS011;2860;54.284;10.158;2023-02-26T16:26:16;1.50;;;1.50;;
5674;SDS011;2860;54.284;10.158;2023-02-26T16:28:56;4.32;;;1.90;;
5674;SDS011;2860;54.284;10.158;2023-02-26T16:31:27;2.60;;;2.50;;
5674;SDS011;2860;54.284;10.158;2023-02-26T16:33:58;3.88;;;3.53;;
5674;SDS011;2860;54.284;10.158;2023-02-26T16:36:29;2.03;;;1.85;;
5674;SDS011;2860;54.284;10.158;2023-02-26T16:39:10;2.58;;;2.38;;
5674;SDS011;2860;54.284;10.158;2023-02-26T16:41:39;5.35;;;3.65;;
5674;SDS011;2860;54.284;10.158;2023-02-26T16:46:55;4.38;;;3.97;;
5674;SDS011;2860;54.284;10.158;2023-02-26T16:49:27;5.90;;;3.75;;
5674;SDS011;2860;54.284;10.158;2023-02-26T16:51:56;3.78;;;3.67;;
5674;SDS011;2860;54.284;10.158;2023-02-26T16:54:24;3.15;;;3.05;;
5674;SDS011;2860;54.284;10.158;2023-02-26T16:57:02;4.25;;;3.53;;
5674;SDS011;2860;54.284;10.158;2023-02-26T16:59:31;5.88;;;3.17;;
5674;SDS011;2860;54.284;10.158;2023-02-26T17:02:16;6.03;;;3.97;;
5674;SDS011;2860;54.284;10.158;2023-02-26T17:04:45;10.00;;;4.15;;
5674;SDS011;2860;54.284;10.158;2023-02-26T17:07:25;6.38;;;3.22;;
5674;SDS011;2860;54.284;10.158;2023-02-26T17:09:56;3.85;;;3.55;;
5674;SDS011;2860;54.284;10.158;2023-02-26T17:12:49;5.47;;;3.67;;
5674;SDS011;2860;54.284;10.158;2023-02-26T17:15:22;4.97;;;3.72;;
5674;SDS011;2860;54.284;10.158;2023-02-26T17:17:52;6.43;;;5.85;;
5674;SDS011;2860;54.284;10.158;2023-02-26T17:20:21;8.10;;;7.15;;
5674;SDS011;2860;54.284;10.158;2023-02-26T17:22:47;8.63;;;7.78;;
5674;SDS011;2860;54.284;10.158;2023-02-26T17:25:14;6.45;;;4.95;;
5674;SDS011;2860;54.284;10.158;2023-02-26T17:27:41;6.13;;;5.63;;
5674;SDS011;2860;54.284;10.158;2023-02-26T17:30:07;5.38;;;4.85;;
5674;SDS011;2860;54.284;10.158;2023-02-26T17:32:36;4.72;;;4.03;;
5674;SDS011;2860;54.284;10.158;2023-02-26T17:35:01;7.32;;;5.40;;
5674;SDS011;2860;54.284;10.158;2023-02-26T17:37:31;4.90;;;4.70;;
5674;SDS011;2860;54.284;10.158;2023-02-26T17:39:57;5.45;;;4.97;;
5674;SDS011;2860;54.284;10.158;2023-02-26T17:42:24;4.13;;;3.75;;
5674;SDS011;2860;54.284;10.158;2023-02-26T17:44:49;3.72;;;3.00;;
5674;SDS011;2860;54.284;10.158;2023-02-26T17:47:19;5.30;;;3.88;;
5674;SDS011;2860;54.284;10.158;2023-02-26T17:49:47;3.45;;;3.35;;
5674;SDS011;2860;54.284;10.158;2023-02-26T17:52:13;3.75;;;3.42;;
5674;SDS011;2860;54.284;10.158;2023-02-26T17:54:39;4.20;;;3.83;;
5674;SDS011;2860;54.284;10.158;2023-02-26T17:57:05;3.70;;;3.50;;
5674;SDS011;2860;54.284;10.158;2023-02-26T17:59:31;3.78;;;3.45;;
5674;SDS011;2860;54.284;10.158;2023-02-26T18:01:57;3.60;;;3.50;;
5674;SDS011;2860;54.284;10.158;2023-02-26T18:04:23;4.80;;;4.47;;
5674;SDS011;2860;54.284;10.158;2023-02-26T18:06:49;6.47;;;5.80;;
5674;SDS011;2860;54.284;10.158;2023-02-26T18:09:15;7.40;;;6.68;;